Aérodrome :
LOGIN :

S'inscrire | Disclaimer

   EN    FR    IT 

 










Légende :    VFR   VFR Marginal   IFR   IFR Intensif   IFR Très Intensif
Visi : 
Plafond : 
>= 8 km
>= 3000ft
5 à 8 km
1000 à 3000 ft
1500m à 5 km
500 à 1000 ft
800 à 1500m
200 à 500 ft
< 800m
< 200 ft
Symboles :   Orages  Brouillard  Fortes neiges  Fortes précipitations  Vent > 20 kt
SIGMETs :   Divers  Orages  Givrage  Turbulence  Onde Orograph.  Cendres Volcan.







- Altitude de l'aérodrome : 13 ft
- Code IATA : CAG


LIEE - Cagliari Elmas

DERNIER METAR :
  • 161120Z VRB02KT 9999 FEW020 SCT060 13/08 Q1022

METARs EXPIRÉS :
  • 161050Z 12004KT 080V180 9999 FEW030 BKN060 14/09 Q1022
  • 161020Z 07003KT 7000 SCT030 BKN050 09/08 Q1023
  • 160950Z 32003KT 6000 SCT030 BKN050 08/06 Q1023
  • 160920Z 32003KT 8000 FEW030 BKN045 08/06 Q1023
  • 160850Z 32003KT 290V350 9999 FEW030 SCT045 07/06 Q1023

TAF TAF LIEE
Valide du 16 à 12h jusqu'au 17 à 12h UTC


161100Z 1612/1712 16010KT 9999 SCT050
BECMG 1618/1620 VRB04KT
TEMPO 1700/1706 1500 BCFG BKN012
Pas de NOTAMs connus pour ce terrain.



MET'MAP, la Météo Aéronautique d'un coup d'oeil ! - Copyright ORBIFLY Décembre 2007 - Disclaimer

ORBIFLY MET'MAP TEAM :

Programmation & Développement : Alexandra Zaïnal
Conception & Développement : Baudouin d'Aumeries
Co-Programmation & Développement : Marc-Olivier Méhu
Soutien technique & logistique : Manuel Goepfert

Contact : metmap@orbifly.com




SOURCES & CREDITS :

   NOAA